KJYL

Plantation Arpk Airport

Sylvania, Georgia, USA
METAR KJYL 181455Z AUTO 33006KT 10SM CLR M01/M10 A3045 RMK AO2 T10071098
Observed Flight Rules
Jan-18 @ 14:55 UTC (34 minutes ago) Visual Flight Rules
Wind Visibility Clouds
330° at 6 knots 10 miles
  • Clear skies
Temperatures Readings
Current -1°C / 30°F
Dewpoint -10°C / 14°F
Humidity 51%
Altimeter 30.45" Hg
Pressure 1031 hPa
Elevation 57
METAR KJYL 181455Z AUTO 33006KT 10SM CLR M01/M10 A3045 RMK AO2 T10071098
Observed Flight Rules
Jan-18 @ 14:55 UTC
(34 minutes ago)
VFR
Wind Visibility
330° at 6 knots 10 miles
Clouds
  • Clear skies
Temperature Dewpoint
-1°C / 30°F -10°C / 14°F
Humidity Altimeter Pressure
51% 30.45" Hg 1031 hPa